Time;durP1;ratioP1;P1;durP2;ratioP2;P2;SDS_P1;SDS_P2;PMS_P1;PMS_P2;Temp;Humidity;BMP_temperature;BMP_pressure;BME280_temperature;BME280_humidity;BME280_pressure;Samples;Min_cycle;Max_cycle;Signal;HPM_P1;HPM_P2
2022/09/03 00:02:26;;;;;;;3.85;1.40;;;23.60;57.00;;;;;;5052878;28;20505;-71
2022/09/03 00:04:59;;;;;;;2.28;1.20;;;23.60;57.20;;;;;;5053521;28;20028;-72
2022/09/03 00:07:55;;;;;;;3.80;1.25;;;23.60;57.10;;;;;;5052232;28;20091;-73
2022/09/03 00:10:28;;;;;;;3.67;1.10;;;23.50;57.10;;;;;;5053399;28;20175;-71
2022/09/03 00:13:00;;;;;;;3.30;1.08;;;23.60;57.10;;;;;;5053382;28;20108;-72
2022/09/03 00:15:28;;;;;;;3.00;1.10;;;23.50;57.30;;;;;;5053239;28;20025;-72
2022/09/03 00:18:09;;;;;;;2.85;1.10;;;23.40;57.30;;;;;;5052958;28;20023;-72
2022/09/03 00:20:43;;;;;;;4.00;1.00;;;23.40;57.50;;;;;;5053242;28;20478;-73
2022/09/03 00:23:15;;;;;;;4.43;1.40;;;23.60;57.40;;;;;;5053246;28;20055;-72
2022/09/03 00:25:47;;;;;;;5.78;0.93;;;23.60;57.20;;;;;;5053246;28;20028;-73
2022/09/03 00:28:20;;;;;;;1.63;1.15;;;23.60;57.40;;;;;;5053063;28;20900;-72
2022/09/03 00:30:52;;;;;;;5.13;1.33;;;23.60;57.40;;;;;;5052692;28;20560;-73
2022/09/03 00:33:22;;;;;;;2.15;1.02;;;23.60;57.30;;;;;;5053114;28;20102;-67
2022/09/03 00:36:01;;;;;;;2.53;0.80;;;23.70;57.20;;;;;;5053109;28;20020;-70
2022/09/03 00:38:28;;;;;;;2.25;1.05;;;23.60;57.10;;;;;;5052843;28;20418;-74
2022/09/03 00:41:05;;;;;;;1.63;0.90;;;23.80;56.80;;;;;;5052964;28;20116;-73
2022/09/03 00:43:49;;;;;;;2.80;1.08;;;23.90;56.50;;;;;;5053033;28;20021;-75
2022/09/03 00:46:30;;;;;;;3.33;1.08;;;24.00;56.40;;;;;;5052658;28;20033;-76
2022/09/03 00:49:23;;;;;;;2.97;1.00;;;24.20;56.10;;;;;;5051489;28;20027;-73
2022/09/03 00:52:03;;;;;;;5.35;1.08;;;24.20;55.90;;;;;;5052957;28;20029;-74
2022/09/03 00:54:49;;;;;;;5.35;1.00;;;24.40;55.70;;;;;;5052273;28;20025;-75
2022/09/03 00:57:53;;;;;;;2.85;1.23;;;24.40;55.70;;;;;;5048225;28;20128;-76
2022/09/03 01:00:19;;;;;;;3.30;0.98;;;24.40;55.90;;;;;;5012788;28;20449;-75
2022/09/03 01:03:09;;;;;;;4.45;1.40;;;24.40;55.80;;;;;;5051734;28;20526;-74
2022/09/03 01:05:47;;;;;;;6.05;1.30;;;24.30;56.00;;;;;;5051519;28;20466;-76
2022/09/03 01:08:22;;;;;;;3.30;1.15;;;24.30;56.10;;;;;;5055825;28;20033;-76
2022/09/03 01:11:09;;;;;;;2.20;1.10;;;24.20;56.20;;;;;;5056726;28;20021;-74
2022/09/03 01:13:41;;;;;;;3.30;1.20;;;24.10;56.20;;;;;;5057011;28;20078;-77
2022/09/03 01:16:27;;;;;;;3.20;1.25;;;24.30;56.20;;;;;;5056417;28;20097;-71
2022/09/03 01:19:02;;;;;;;2.95;0.95;;;24.30;56.10;;;;;;5055324;28;20024;-75
2022/09/03 01:22:00;;;;;;;3.05;1.30;;;24.30;56.20;;;;;;5056174;28;20086;-74
2022/09/03 01:24:44;;;;;;;2.60;1.38;;;24.20;56.60;;;;;;5056563;28;20060;-72
2022/09/03 01:27:40;;;;;;;2.33;0.95;;;24.30;56.60;;;;;;5056396;28;20025;-74
2022/09/03 01:30:16;;;;;;;3.05;1.27;;;24.30;57.20;;;;;;5055977;28;20031;-73
2022/09/03 01:33:00;;;;;;;2.53;1.40;;;24.20;57.30;;;;;;5056505;28;20029;-74
2022/09/03 01:35:41;;;;;;;2.70;1.20;;;24.30;57.40;;;;;;5056136;28;20497;-74
2022/09/03 01:38:19;;;;;;;3.55;1.30;;;24.20;57.40;;;;;;5055966;28;20428;-75
2022/09/03 01:42:12;;;;;;;2.67;1.10;;;24.20;57.20;;;;;;5056122;28;20033;-74
2022/09/03 01:44:18;;;;;;;1.98;1.17;;;24.10;57.40;;;;;;5055821;28;20044;-71
2022/09/03 01:46:44;;;;;;;2.85;1.25;;;24.10;57.30;;;;;;5056208;28;20031;-75
2022/09/03 01:49:27;;;;;;;1.88;1.23;;;24.10;57.20;;;;;;5054882;28;20018;-76
2022/09/03 01:52:02;;;;;;;;;;;24.10;57.20;;;;;;5055035;28;20068;-74
2022/09/03 01:54:44;;;;;;;2.88;1.20;;;24.40;56.80;;;;;;5056024;28;19913;-76
2022/09/03 01:57:43;;;;;;;3.67;1.30;;;24.20;56.90;;;;;;5055834;28;20098;-70
2022/09/03 02:00:12;;;;;;;1.95;1.08;;;24.00;57.10;;;;;;5055926;28;20028;-70
2022/09/03 02:02:42;;;;;;;3.10;1.10;;;24.00;57.50;;;;;;5055656;28;20029;-70
2022/09/03 02:05:13;;;;;;;4.10;1.38;;;23.80;57.80;;;;;;5055786;28;20100;-71
2022/09/03 02:07:48;;;;;;;2.55;1.20;;;23.70;58.00;;;;;;5055692;28;20017;-71
2022/09/03 02:10:19;;;;;;;2.75;0.90;;;23.70;58.10;;;;;;5055745;28;20021;-70
2022/09/03 02:12:52;;;;;;;3.43;1.43;;;23.70;58.70;;;;;;5055164;28;20096;-73
2022/09/03 02:15:21;;;;;;;2.60;1.13;;;23.80;57.90;;;;;;5055762;28;20113;-72
2022/09/03 02:17:49;;;;;;;2.63;1.23;;;23.90;57.50;;;;;;5054836;28;20048;-75
2022/09/03 02:20:20;;;;;;;2.55;1.08;;;23.90;57.40;;;;;;5055408;28;20063;-75
2022/09/03 02:22:48;;;;;;;1.73;1.07;;;23.90;57.30;;;;;;5055350;28;20059;-76
2022/09/03 02:25:13;;;;;;;2.15;0.70;;;23.90;57.20;;;;;;5055325;28;20085;-75
2022/09/03 02:27:40;;;;;;;2.35;1.23;;;23.90;57.50;;;;;;5055011;28;20026;-76
2022/09/03 02:30:07;;;;;;;1.90;1.30;;;23.90;57.20;;;;;;5055140;28;20021;-74
2022/09/03 02:32:32;;;;;;;3.25;1.48;;;24.00;57.20;;;;;;5055000;28;20033;-74
2022/09/03 02:34:58;;;;;;;2.45;1.17;;;24.00;57.20;;;;;;5055094;28;20044;-70
2022/09/03 02:37:24;;;;;;;4.53;1.00;;;24.00;57.10;;;;;;5054938;28;20025;-71
2022/09/03 02:39:53;;;;;;;4.25;1.15;;;24.00;57.30;;;;;;5055077;28;20546;-71
2022/09/03 02:42:19;;;;;;;4.97;1.73;;;24.00;57.40;;;;;;5054750;28;20048;-70
2022/09/03 02:44:52;;;;;;;9.73;1.40;;;23.80;57.50;;;;;;5054960;28;20018;-70
2022/09/03 02:47:19;;;;;;;5.63;2.00;;;23.70;57.90;;;;;;5054709;28;20100;-70
2022/09/03 02:49:47;;;;;;;7.45;1.90;;;23.60;58.10;;;;;;5055004;28;20493;-70
2022/09/03 02:52:14;;;;;;;6.70;1.40;;;23.60;58.40;;;;;;5054787;28;20033;-70
2022/09/03 02:54:39;;;;;;;4.03;1.30;;;23.40;58.80;;;;;;5054906;28;20045;-70
2022/09/03 02:57:11;;;;;;;6.03;1.33;;;23.40;58.90;;;;;;5054401;28;20060;-71
2022/09/03 02:59:38;;;;;;;2.92;1.15;;;23.60;58.80;;;;;;5054646;28;20463;-70
2022/09/03 03:02:04;;;;;;;2.75;1.08;;;23.80;58.50;;;;;;5054536;28;20059;-71
2022/09/03 03:04:31;;;;;;;3.20;1.38;;;23.90;58.30;;;;;;5054546;28;20421;-70
2022/09/03 03:06:57;;;;;;;4.47;1.20;;;23.70;58.20;;;;;;5054535;28;20029;-75
2022/09/03 03:09:22;;;;;;;5.18;2.10;;;23.80;58.20;;;;;;5054565;28;20078;-70
2022/09/03 03:11:50;;;;;;;3.40;1.88;;;23.80;58.20;;;;;;5054250;28;20462;-70
2022/09/03 03:14:16;;;;;;;4.25;1.45;;;23.70;59.00;;;;;;5054460;28;20021;-70
2022/09/03 03:16:42;;;;;;;3.70;1.60;;;23.60;58.60;;;;;;5054317;28;20029;-70
2022/09/03 03:19:08;;;;;;;3.33;1.48;;;23.70;58.70;;;;;;5054373;28;20017;-72
2022/09/03 03:21:34;;;;;;;2.92;1.20;;;23.80;58.60;;;;;;5054422;28;20047;-71
2022/09/03 03:24:01;;;;;;;4.28;1.10;;;23.80;58.60;;;;;;5054276;28;20045;-70
2022/09/03 03:26:27;;;;;;;3.53;1.00;;;23.80;58.80;;;;;;5053932;28;20033;-71
2022/09/03 03:28:56;;;;;;;2.22;1.15;;;23.80;58.90;;;;;;5053640;28;20009;-70
2022/09/03 03:31:23;;;;;;;5.15;1.13;;;23.70;59.00;;;;;;5054129;28;20033;-69
2022/09/03 03:33:57;;;;;;;4.97;1.08;;;23.70;59.10;;;;;;5054174;28;20052;-69
2022/09/03 03:36:24;;;;;;;4.55;1.27;;;23.70;59.30;;;;;;5054206;28;20381;-76
2022/09/03 03:38:53;;;;;;;1.92;1.10;;;23.70;59.50;;;;;;5053402;28;20393;-77
2022/09/03 03:41:24;;;;;;;3.28;1.20;;;23.60;59.70;;;;;;5054094;28;20075;-75
2022/09/03 03:43:55;;;;;;;1.65;0.85;;;23.60;59.80;;;;;;5053936;28;20390;-77
2022/09/03 03:46:22;;;;;;;5.53;1.38;;;23.70;59.80;;;;;;5054014;28;20021;-76
2022/09/03 03:48:48;;;;;;;5.28;1.20;;;23.60;59.70;;;;;;5053527;28;20017;-75
2022/09/03 03:51:14;;;;;;;1.90;1.10;;;23.70;59.80;;;;;;5053901;28;20060;-76
2022/09/03 03:53:40;;;;;;;2.15;1.20;;;23.60;59.90;;;;;;5053461;28;20453;-77
2022/09/03 03:56:09;;;;;;;3.25;1.25;;;23.60;59.90;;;;;;5054052;28;20032;-76
2022/09/03 03:58:36;;;;;;;4.93;1.30;;;23.60;59.70;;;;;;5053492;28;20032;-76
2022/09/03 04:01:06;;;;;;;4.03;1.23;;;23.60;59.90;;;;;;5053517;28;20029;-76
2022/09/03 04:03:33;;;;;;;2.20;1.25;;;23.50;59.80;;;;;;5053343;28;20106;-74
2022/09/03 04:05:59;;;;;;;5.32;1.20;;;23.50;59.80;;;;;;5053511;28;20057;-76
2022/09/03 04:08:26;;;;;;;3.20;1.40;;;23.50;59.80;;;;;;5052973;28;20021;-76
2022/09/03 04:10:52;;;;;;;4.88;1.35;;;23.50;60.00;;;;;;5053727;28;20025;-75
2022/09/03 04:13:18;;;;;;;2.15;0.93;;;23.40;59.90;;;;;;5051830;28;20458;-72
2022/09/03 04:15:44;;;;;;;2.60;1.48;;;23.50;60.00;;;;;;5053477;28;20032;-75
2022/09/03 04:18:10;;;;;;;3.67;1.30;;;23.50;60.10;;;;;;5053374;28;20091;-77
2022/09/03 04:20:35;;;;;;;2.20;1.15;;;23.40;60.30;;;;;;5051798;28;20500;-77
2022/09/03 04:23:01;;;;;;;3.13;1.50;;;23.40;60.50;;;;;;5053064;28;20029;-76
2022/09/03 04:25:27;;;;;;;1.73;1.30;;;23.50;60.40;;;;;;5053045;28;20039;-76
2022/09/03 04:27:52;;;;;;;3.17;1.38;;;23.50;60.60;;;;;;5053183;28;20052;-76
2022/09/03 04:30:19;;;;;;;5.60;1.80;;;23.60;60.60;;;;;;5053121;28;20061;-76
2022/09/03 04:32:54;;;;;;;5.15;1.45;;;23.40;60.60;;;;;;5053304;28;20040;-76
2022/09/03 04:35:28;;;;;;;2.33;1.13;;;23.40;61.10;;;;;;5053153;28;20040;-77
2022/09/03 04:37:54;;;;;;;3.70;1.50;;;23.40;61.40;;;;;;5052853;28;20025;-75
2022/09/03 04:40:20;;;;;;;5.22;1.80;;;23.50;61.50;;;;;;5052537;28;20033;-77
2022/09/03 04:42:45;;;;;;;4.32;1.30;;;23.40;61.50;;;;;;5053083;28;20363;-76
2022/09/03 04:45:14;;;;;;;2.47;1.50;;;23.40;61.70;;;;;;5052979;28;20025;-76
2022/09/03 04:47:40;;;;;;;5.70;1.52;;;23.40;61.90;;;;;;5052902;28;20390;-77
2022/09/03 04:50:06;;;;;;;2.47;1.55;;;23.40;62.10;;;;;;5053220;28;20017;-77
2022/09/03 04:52:32;;;;;;;3.15;2.10;;;23.40;62.40;;;;;;5052529;28;20025;-76
2022/09/03 04:54:57;;;;;;;3.85;1.92;;;23.50;62.80;;;;;;5052906;28;20109;-77
2022/09/03 04:57:23;;;;;;;3.05;2.28;;;23.40;63.20;;;;;;5052907;28;20060;-77
2022/09/03 04:59:49;;;;;;;4.15;2.00;;;23.40;63.70;;;;;;5052800;28;20025;-76
2022/09/03 05:02:14;;;;;;;5.38;2.08;;;23.40;63.80;;;;;;5035870;28;20048;-75
2022/09/03 05:04:41;;;;;;;5.10;2.25;;;23.40;64.00;;;;;;5032532;28;20018;-74
2022/09/03 05:07:07;;;;;;;6.85;2.50;;;23.20;64.70;;;;;;5031275;28;20026;-76
2022/09/03 05:09:33;;;;;;;4.57;1.92;;;23.20;65.20;;;;;;5032396;28;20029;-76
2022/09/03 05:11:59;;;;;;;5.45;2.40;;;23.00;65.90;;;;;;5032923;28;20022;-76
2022/09/03 05:14:24;;;;;;;4.28;2.38;;;23.30;65.90;;;;;;5032633;28;20379;-76
2022/09/03 05:16:50;;;;;;;5.70;2.35;;;23.30;66.00;;;;;;5035902;28;20053;-75
2022/09/03 05:19:16;;;;;;;4.57;2.60;;;23.30;65.90;;;;;;5045158;28;20104;-75
2022/09/03 05:21:42;;;;;;;4.45;2.35;;;23.20;66.00;;;;;;5051788;28;20442;-76
2022/09/03 05:24:07;;;;;;;4.93;3.08;;;23.10;66.10;;;;;;5052761;28;20078;-76
2022/09/03 05:26:37;;;;;;;5.95;2.80;;;23.10;65.90;;;;;;5052261;28;20032;-76
2022/09/03 05:29:07;;;;;;;5.65;2.53;;;23.00;65.70;;;;;;5050650;28;20029;-76
2022/09/03 05:31:35;;;;;;;5.28;2.42;;;23.10;65.60;;;;;;5052126;28;20108;-76
2022/09/03 05:34:03;;;;;;;5.20;2.38;;;22.90;65.80;;;;;;5052722;28;20036;-77
2022/09/03 05:36:32;;;;;;;6.55;2.22;;;22.80;66.10;;;;;;5052067;28;20025;-76
2022/09/03 05:38:58;;;;;;;6.20;2.42;;;23.00;65.90;;;;;;5052690;28;20029;-77
2022/09/03 05:41:24;;;;;;;4.35;2.30;;;23.10;66.30;;;;;;5052376;28;20479;-76
2022/09/03 05:43:54;;;;;;;7.63;3.13;;;22.90;66.10;;;;;;5052596;28;20356;-72
2022/09/03 05:46:20;;;;;;;10.93;2.35;;;22.80;66.00;;;;;;5052376;28;20512;-76
2022/09/03 05:48:46;;;;;;;6.70;2.30;;;22.90;65.60;;;;;;5052588;28;20151;-75
2022/09/03 05:51:15;;;;;;;8.98;2.63;;;22.80;65.60;;;;;;5047930;28;20108;-75
2022/09/03 05:53:42;;;;;;;4.18;2.55;;;23.10;65.10;;;;;;5041741;28;20032;-75
2022/09/03 05:56:10;;;;;;;6.97;2.40;;;23.30;64.50;;;;;;5048139;28;20023;-75
2022/09/03 05:58:39;;;;;;;6.80;2.45;;;23.40;64.20;;;;;;5046339;28;20028;-77
2022/09/03 06:01:12;;;;;;;3.92;1.70;;;23.50;64.10;;;;;;5039699;28;20095;-72
2022/09/03 06:03:38;;;;;;;4.53;2.05;;;23.50;64.50;;;;;;5044669;28;20024;-75
2022/09/03 06:06:04;;;;;;;5.90;2.08;;;23.40;64.30;;;;;;5044895;28;20087;-74
2022/09/03 06:08:30;;;;;;;4.30;1.80;;;23.20;64.30;;;;;;5038097;28;20501;-75
2022/09/03 06:11:00;;;;;;;5.55;1.90;;;23.20;64.20;;;;;;5048939;28;20039;-75
2022/09/03 06:13:26;;;;;;;3.75;1.67;;;23.30;63.90;;;;;;5074709;28;20023;-74
2022/09/03 06:16:03;;;;;;;3.53;1.80;;;23.30;63.80;;;;;;5064740;28;20461;-73
2022/09/03 06:18:30;;;;;;;6.05;1.63;;;23.20;63.90;;;;;;5038275;28;20021;-74
2022/09/03 06:21:04;;;;;;;2.30;1.63;;;23.40;63.60;;;;;;5046283;28;20064;-75
2022/09/03 06:23:31;;;;;;;6.05;2.28;;;23.40;63.60;;;;;;5037329;28;20025;-74
2022/09/03 06:26:00;;;;;;;6.10;2.15;;;23.40;63.70;;;;;;5047238;28;20152;-75
2022/09/03 06:28:26;;;;;;;3.55;1.70;;;23.20;64.00;;;;;;5062594;28;20454;-75
2022/09/03 06:30:52;;;;;;;5.20;1.83;;;23.30;64.20;;;;;;5045305;28;20024;-74
2022/09/03 06:33:18;;;;;;;4.78;1.92;;;23.40;64.40;;;;;;5052777;28;20075;-73
2022/09/03 06:35:44;;;;;;;3.72;1.85;;;23.30;64.60;;;;;;5051920;28;20029;-73
2022/09/03 06:38:11;;;;;;;6.18;1.95;;;23.30;64.60;;;;;;5048451;28;20013;-74
2022/09/03 06:40:37;;;;;;;7.93;2.30;;;23.30;64.70;;;;;;5057057;28;20040;-70
2022/09/03 06:43:03;;;;;;;8.75;2.08;;;23.30;64.90;;;;;;5056566;28;20021;-73
2022/09/03 06:45:31;;;;;;;4.88;2.10;;;23.40;65.10;;;;;;5049829;28;20029;-71
2022/09/03 06:47:57;;;;;;;4.65;1.90;;;23.40;65.10;;;;;;5055876;28;20021;-75
2022/09/03 06:50:23;;;;;;;8.77;2.40;;;23.40;65.20;;;;;;5039210;28;20387;-75
2022/09/03 06:52:53;;;;;;;7.68;2.08;;;23.20;65.60;;;;;;5040094;28;20029;-76
2022/09/03 06:55:21;;;;;;;6.95;2.42;;;23.30;65.60;;;;;;5048028;28;20036;-71
2022/09/03 06:57:47;;;;;;;9.50;2.35;;;23.10;65.80;;;;;;5037550;28;20021;-76
2022/09/03 07:00:14;;;;;;;9.00;2.35;;;23.00;65.90;;;;;;5042706;28;20374;-75
2022/09/03 07:02:40;;;;;;;8.45;2.50;;;22.80;66.40;;;;;;5037693;28;20030;-74
2022/09/03 07:05:07;;;;;;;5.85;2.03;;;22.90;66.20;;;;;;5039778;28;20024;-74
2022/09/03 07:07:32;;;;;;;6.68;1.90;;;23.10;65.80;;;;;;5034643;28;20127;-75
2022/09/03 07:09:58;;;;;;;7.78;2.38;;;23.10;65.80;;;;;;5038980;28;20041;-71
2022/09/03 07:12:23;;;;;;;8.70;2.25;;;23.10;66.10;;;;;;5035291;28;20526;-76
2022/09/03 07:14:49;;;;;;;5.80;2.00;;;23.10;66.30;;;;;;5036743;28;20105;-70
2022/09/03 07:17:15;;;;;;;6.72;1.98;;;23.10;66.60;;;;;;5038673;28;20040;-75
2022/09/03 07:19:41;;;;;;;6.32;2.08;;;22.90;67.00;;;;;;5034137;28;20017;-73
2022/09/03 07:22:08;;;;;;;9.02;2.45;;;23.00;67.00;;;;;;5034106;28;20108;-76
2022/09/03 07:24:34;;;;;;;4.30;2.20;;;23.10;67.10;;;;;;5034038;28;20128;-75
2022/09/03 07:27:00;;;;;;;5.07;2.40;;;23.10;67.40;;;;;;5034162;28;20036;-72
2022/09/03 07:29:26;;;;;;;5.32;1.92;;;22.90;67.80;;;;;;5034087;28;20036;-74
2022/09/03 07:31:55;;;;;;;8.52;2.30;;;22.90;68.00;;;;;;5033925;28;20538;-75
2022/09/03 07:34:23;;;;;;;6.72;2.97;;;22.70;68.80;;;;;;5034117;28;20036;-72
2022/09/03 07:36:49;;;;;;;6.15;2.38;;;22.70;69.00;;;;;;5037627;28;20384;-76
2022/09/03 07:39:16;;;;;;;4.53;2.30;;;22.90;68.60;;;;;;5042269;28;20032;-70
2022/09/03 07:41:44;;;;;;;3.53;2.00;;;22.90;68.80;;;;;;5046364;28;20056;-71
2022/09/03 07:44:14;;;;;;;5.78;1.75;;;23.00;69.20;;;;;;5044687;28;20017;-71
2022/09/03 07:46:42;;;;;;;6.70;2.30;;;22.90;69.50;;;;;;5052080;28;20078;-74
2022/09/03 07:49:08;;;;;;;16.00;3.45;;;22.90;70.00;;;;;;5049246;28;20056;-70
2022/09/03 07:51:36;;;;;;;3.95;1.88;;;23.20;69.30;;;;;;5041759;28;20022;-67
2022/09/03 07:54:05;;;;;;;7.72;2.30;;;23.20;69.40;;;;;;5038985;28;20043;-70
2022/09/03 07:56:33;;;;;;;5.10;1.90;;;23.40;69.20;;;;;;5052253;28;20029;-70
2022/09/03 07:58:59;;;;;;;3.30;1.90;;;23.40;69.00;;;;;;5035680;28;20018;-70
2022/09/03 08:01:32;;;;;;;5.72;1.92;;;23.40;69.20;;;;;;5041778;28;20128;-70
2022/09/03 08:03:59;;;;;;;2.80;1.88;;;23.50;69.60;;;;;;5043620;28;20025;-67
2022/09/03 08:06:27;;;;;;;8.15;2.17;;;23.40;69.90;;;;;;5049752;28;20043;-65
2022/09/03 08:09:04;;;;;;;6.47;1.85;;;23.30;70.20;;;;;;5051978;28;20094;-65
2022/09/03 08:11:31;;;;;;;6.13;2.13;;;23.30;70.30;;;;;;5043341;28;20036;-65
2022/09/03 08:14:02;;;;;;;4.85;1.98;;;23.30;70.80;;;;;;5047810;28;20024;-66
2022/09/03 08:16:30;;;;;;;3.95;2.17;;;23.30;70.80;;;;;;5050576;28;20032;-68
2022/09/03 08:18:56;;;;;;;5.90;2.13;;;23.10;71.60;;;;;;5041316;28;20458;-70
2022/09/03 08:21:22;;;;;;;6.35;2.45;;;23.20;72.10;;;;;;5048015;28;20044;-67
2022/09/03 08:23:50;;;;;;;5.15;1.77;;;23.20;72.30;;;;;;5052708;28;20355;-70
2022/09/03 08:26:17;;;;;;;4.80;2.15;;;23.10;72.60;;;;;;5052456;28;20104;-68
2022/09/03 08:28:44;;;;;;;7.65;1.88;;;23.10;72.80;;;;;;5049559;28;20104;-69
2022/09/03 08:31:18;;;;;;;5.30;2.00;;;23.30;72.80;;;;;;5046782;28;20036;-70
2022/09/03 08:33:46;;;;;;;3.65;2.13;;;23.10;73.60;;;;;;5043960;28;20026;-71
2022/09/03 08:36:17;;;;;;;4.95;1.80;;;23.20;73.20;;;;;;5060438;28;20037;-69
2022/09/03 08:38:45;;;;;;;3.83;2.00;;;23.40;73.00;;;;;;5050467;28;20035;-70
2022/09/03 08:41:22;;;;;;;7.55;2.40;;;23.50;73.10;;;;;;5046278;28;20421;-70
2022/09/03 08:44:22;;;;;;;5.78;2.30;;;23.30;73.80;;;;;;5035658;28;20026;-67
2022/09/03 08:46:57;;;;;;;6.38;2.22;;;23.40;74.00;;;;;;5040504;28;20498;-67
2022/09/03 08:50:01;;;;;;;3.75;2.05;;;23.60;73.50;;;;;;5036356;28;20044;-69
2022/09/03 08:52:37;;;;;;;4.55;2.03;;;23.60;73.40;;;;;;5038388;28;20131;-68
2022/09/03 08:55:14;;;;;;;4.72;2.33;;;23.40;73.90;;;;;;5035593;28;21146;-68
2022/09/03 08:57:44;;;;;;;4.53;2.03;;;23.60;73.50;;;;;;5030633;28;20104;-64
2022/09/03 09:00:10;;;;;;;4.57;2.33;;;23.60;73.20;;;;;;5038511;28;20025;-68
2022/09/03 09:02:45;;;;;;;4.85;2.15;;;23.60;73.60;;;;;;5033630;28;20061;-64
2022/09/03 09:05:15;;;;;;;5.50;2.63;;;23.70;73.10;;;;;;5048394;28;20025;-67
2022/09/03 09:08:11;;;;;;;6.18;2.60;;;23.90;73.00;;;;;;5037940;28;20058;-67
2022/09/03 09:10:47;;;;;;;5.40;2.53;;;24.00;72.80;;;;;;5031479;28;20021;-65
2022/09/03 09:13:24;;;;;;;4.13;2.17;;;24.00;72.80;;;;;;5040944;28;20057;-68
2022/09/03 09:16:09;;;;;;;5.70;2.00;;;24.00;72.80;;;;;;5040079;28;20053;-67
2022/09/03 09:18:55;;;;;;;7.07;2.67;;;24.00;72.90;;;;;;5040754;28;20025;-66
2022/09/03 09:21:34;;;;;;;6.00;2.53;;;24.10;73.30;;;;;;5045648;28;20091;-65
2022/09/03 09:24:20;;;;;;;5.32;2.03;;;24.10;73.80;;;;;;5036518;28;20475;-65
2022/09/03 09:26:47;;;;;;;5.35;2.42;;;24.10;73.60;;;;;;5044490;28;20029;-68
2022/09/03 09:29:14;;;;;;;3.17;2.58;;;24.10;74.00;;;;;;5047520;28;20017;-65
2022/09/03 09:31:44;;;;;;;3.30;2.22;;;24.20;74.30;;;;;;5040990;28;20033;-68
2022/09/03 09:34:10;;;;;;;5.32;2.30;;;24.20;74.40;;;;;;5044531;28;20023;-68
2022/09/03 09:36:56;;;;;;;4.57;2.28;;;24.20;74.10;;;;;;5041269;28;20108;-66
2022/09/03 09:39:22;;;;;;;3.70;2.60;;;24.30;74.70;;;;;;5047714;28;20049;-68
2022/09/03 09:41:59;;;;;;;3.55;2.17;;;24.30;74.90;;;;;;5043751;28;20040;-66
2022/09/03 09:44:25;;;;;;;7.65;2.40;;;24.20;74.30;;;;;;5042752;28;20053;-69
2022/09/03 09:47:03;;;;;;;4.85;2.30;;;24.30;74.30;;;;;;5050447;28;20033;-70
2022/09/03 09:49:30;;;;;;;5.65;2.55;;;24.30;74.50;;;;;;5040088;28;20031;-67
2022/09/03 09:52:07;;;;;;;5.10;2.83;;;24.30;75.20;;;;;;5040156;28;20028;-69
2022/09/03 09:54:33;;;;;;;6.05;2.35;;;24.40;75.70;;;;;;5034336;28;20037;-67
2022/09/03 09:57:05;;;;;;;5.40;2.20;;;24.40;76.10;;;;;;5050117;28;20116;-72
2022/09/03 09:59:32;;;;;;;5.68;2.38;;;24.40;75.30;;;;;;5049173;28;20043;-68
2022/09/03 10:02:12;;;;;;;7.72;2.42;;;24.40;75.20;;;;;;5054262;28;20095;-71
2022/09/03 10:04:39;;;;;;;5.55;2.22;;;24.40;75.50;;;;;;5041966;28;20049;-66
2022/09/03 10:07:30;;;;;;;11.02;2.20;;;24.40;75.30;;;;;;5040040;28;20025;-69
2022/09/03 10:10:01;;;;;;;9.75;2.60;;;24.50;75.60;;;;;;5037660;28;20478;-69
2022/09/03 10:12:35;;;;;;;4.90;2.13;;;24.50;75.70;;;;;;5039503;28;20030;-67
2022/09/03 10:15:09;;;;;;;3.92;2.38;;;24.60;76.10;;;;;;5048406;28;20439;-70
2022/09/03 10:18:11;;;;;;;6.63;3.03;;;24.60;76.70;;;;;;5047052;28;20041;-66
2022/09/03 10:21:02;;;;;;;6.25;3.05;;;24.70;77.50;;;;;;5049701;28;20454;-69
2022/09/03 10:23:32;;;;;;;8.55;3.22;;;24.60;79.10;;;;;;5045591;28;20112;-69
2022/09/03 10:26:06;;;;;;;4.30;2.78;;;24.70;82.10;;;;;;5048960;28;20029;-68
2022/09/03 10:28:41;;;;;;;9.15;3.05;;;24.80;81.40;;;;;;5043877;28;20033;-66
2022/09/03 10:31:38;;;;;;;5.97;3.30;;;24.80;83.40;;;;;;5042079;28;20385;-67
2022/09/03 10:34:15;;;;;;;5.53;3.70;;;24.80;84.00;;;;;;5042645;28;20063;-65
2022/09/03 10:37:22;;;;;;;6.47;4.00;;;24.90;82.70;;;;;;5037133;28;20565;-67
2022/09/03 10:40:06;;;;;;;9.93;3.40;;;24.90;86.20;;;;;;4947212;28;20039;-70
2022/09/03 10:42:41;;;;;;;10.05;3.40;;;24.90;86.40;;;;;;4947781;28;20665;-71
2022/09/03 10:45:18;;;;;;;6.88;3.00;;;24.90;85.70;;;;;;5013091;28;20037;-68
2022/09/03 10:48:13;;;;;;;6.97;2.83;;;25.00;83.10;;;;;;5049009;28;20028;-71
2022/09/03 10:51:03;;;;;;;4.53;2.63;;;25.00;86.00;;;;;;5037972;28;20034;-70
2022/09/03 10:53:55;;;;;;;9.63;3.50;;;25.00;84.20;;;;;;5049105;28;20516;-71
2022/09/03 10:56:27;;;;;;;;;;;25.00;82.10;;;;;;5044468;28;20068;-68
2022/09/03 10:58:55;;;;;;;4.93;3.20;;;25.20;81.00;;;;;;5041541;28;19909;-68
2022/09/03 11:01:53;;;;;;;5.60;2.80;;;25.20;80.00;;;;;;5035915;28;20131;-69
2022/09/03 11:04:34;;;;;;;6.10;2.63;;;25.10;82.60;;;;;;5038790;28;20029;-68
2022/09/03 11:07:06;;;;;;;7.68;2.90;;;25.10;82.80;;;;;;5037736;28;20065;-68
2022/09/03 11:09:34;;;;;;;10.90;3.30;;;25.10;83.30;;;;;;5037805;28;20099;-68
2022/09/03 11:12:10;;;;;;;8.98;2.58;;;25.20;83.20;;;;;;5035750;28;20025;-71
2022/09/03 11:14:45;;;;;;;9.13;3.20;;;25.10;83.90;;;;;;5048681;28;20033;-72
2022/09/03 11:17:19;;;;;;;5.53;2.17;;;25.10;82.60;;;;;;5032211;28;20017;-70
2022/09/03 11:19:50;;;;;;;6.68;2.45;;;25.20;83.00;;;;;;5035765;28;20028;-70
2022/09/03 11:22:17;;;;;;;4.72;3.00;;;25.30;82.90;;;;;;5046523;28;20553;-69
2022/09/03 11:24:48;;;;;;;7.57;2.78;;;25.30;82.40;;;;;;5048577;28;20029;-69
2022/09/03 11:27:44;;;;;;;6.43;2.88;;;25.30;81.80;;;;;;5044311;28;20103;-71
2022/09/03 11:30:39;;;;;;;7.93;2.90;;;25.30;82.10;;;;;;5031591;28;20018;-74
2022/09/03 11:33:09;;;;;;;7.68;2.75;;;25.30;82.60;;;;;;5032160;28;20475;-68
2022/09/03 11:35:35;;;;;;;10.75;3.20;;;25.30;82.80;;;;;;5041766;28;20025;-69
2022/09/03 11:38:03;;;;;;;9.90;2.88;;;25.30;82.50;;;;;;5045029;28;20032;-69
2022/09/03 11:40:34;;;;;;;4.82;2.85;;;25.40;82.10;;;;;;5040139;28;20112;-64
2022/09/03 11:43:14;;;;;;;8.45;2.97;;;25.40;81.40;;;;;;5035196;28;20079;-70
2022/09/03 11:45:40;;;;;;;5.07;2.67;;;25.30;80.70;;;;;;5057732;28;20113;-65
2022/09/03 11:48:38;;;;;;;8.98;2.70;;;25.40;80.10;;;;;;5046217;28;20112;-66
2022/09/03 11:51:17;;;;;;;3.67;2.50;;;25.50;80.20;;;;;;5041227;28;20082;-67
2022/09/03 11:53:56;;;;;;;2.67;2.20;;;25.50;79.60;;;;;;5027457;28;20021;-68
2022/09/03 11:56:22;;;;;;;3.83;2.97;;;25.50;79.40;;;;;;5038386;28;20041;-64
2022/09/03 11:59:15;;;;;;;7.10;2.65;;;25.50;79.20;;;;;;5039082;28;20040;-66
2022/09/03 12:02:04;;;;;;;5.60;2.40;;;25.50;79.00;;;;;;5032509;28;20034;-65
2022/09/03 12:04:42;;;;;;;2.90;2.40;;;25.50;78.70;;;;;;5031411;28;20112;-63
2022/09/03 12:07:42;;;;;;;4.97;2.70;;;25.60;78.60;;;;;;5035978;28;20051;-67
2022/09/03 12:10:23;;;;;;;5.85;2.92;;;25.60;78.60;;;;;;5043908;28;20347;-65
2022/09/03 12:13:42;;;;;;;2.08;1.95;;;25.60;78.30;;;;;;5037715;28;20114;-64
2022/09/03 12:16:41;;;;;;;6.43;2.83;;;25.70;78.40;;;;;;4960632;28;20059;-67
2022/09/03 12:19:28;;;;;;;5.00;2.60;;;25.60;78.40;;;;;;5035759;28;20475;-67
2022/09/03 12:21:55;;;;;;;2.80;2.50;;;25.60;78.10;;;;;;5044471;28;20040;-67
2022/09/03 12:24:32;;;;;;;5.88;2.63;;;25.70;78.00;;;;;;5047246;28;20466;-69
2022/09/03 12:27:02;;;;;;;3.85;2.58;;;25.60;77.90;;;;;;5040412;28;20029;-69
2022/09/03 12:29:29;;;;;;;4.03;2.92;;;25.70;78.10;;;;;;5044589;28;20144;-66
2022/09/03 12:32:05;;;;;;;4.00;2.72;;;25.70;78.00;;;;;;5040532;28;20170;-69
2022/09/03 12:34:31;;;;;;;3.75;2.63;;;25.70;78.20;;;;;;5042195;28;20017;-66
2022/09/03 12:36:57;;;;;;;3.38;2.85;;;25.70;78.00;;;;;;5032854;28;20100;-70
2022/09/03 12:39:25;;;;;;;3.03;2.72;;;25.80;78.00;;;;;;5037872;28;20080;-70
2022/09/03 12:42:00;;;;;;;3.58;2.70;;;25.80;78.00;;;;;;5036065;28;20037;-69
2022/09/03 12:44:28;;;;;;;2.83;2.53;;;25.80;78.20;;;;;;5045726;28;20040;-68
2022/09/03 12:47:12;;;;;;;2.95;2.65;;;25.80;78.40;;;;;;5031765;28;20028;-68
2022/09/03 12:49:40;;;;;;;4.97;2.72;;;25.80;77.80;;;;;;5042577;28;20155;-65
2022/09/03 12:52:19;;;;;;;5.03;3.42;;;25.80;78.30;;;;;;5039382;28;20039;-68
2022/09/03 12:55:05;;;;;;;6.95;4.10;;;25.90;78.20;;;;;;5041694;28;20044;-67
2022/09/03 12:57:40;;;;;;;6.18;3.30;;;25.90;78.20;;;;;;5047928;28;20044;-70
2022/09/03 13:00:08;;;;;;;8.15;3.00;;;25.90;78.70;;;;;;5038604;28;20025;-65
2022/09/03 13:02:40;;;;;;;10.57;3.42;;;25.90;78.80;;;;;;5054004;28;20568;-67
2022/09/03 13:05:13;;;;;;;5.05;3.08;;;25.90;78.60;;;;;;5055970;28;20040;-67
2022/09/03 13:07:38;;;;;;;5.93;3.00;;;26.00;77.70;;;;;;5056702;28;20049;-67
2022/09/03 13:10:15;;;;;;;8.27;3.17;;;26.00;77.90;;;;;;5053377;28;20053;-66
2022/09/03 13:12:46;;;;;;;9.38;3.00;;;26.00;78.00;;;;;;5054597;28;20052;-65
2022/09/03 13:15:21;;;;;;;8.82;3.33;;;26.00;77.70;;;;;;5056066;28;20025;-69
2022/09/03 13:18:00;;;;;;;5.65;3.00;;;26.00;77.70;;;;;;5056481;28;20032;-69